Latest  Newer  Older  Last 2 hours slideshow  Last 24 hours slideshow  Refresh every 5 minutes 
Current image  Latest image  Rain/snow radar  Cloud coverage sat images 

All time is UTC (add 2 hours to UTC in wintertime, 3 hours to UTC in DST for Latvia local time)

2020/02/22 20:20 EVRA 222020Z 23012KT 200V280 CAVOK 05/01 Q0991 R18/290195 NOSIG
2020/02/22 19:50 EVLA 221950Z AUTO 24025KT 9999 FEW099/// BKN130/// 05/03 Q0993
2020/02/22 20:20 EVVA 222020Z AUTO 25024G34KT CAVOK 05/03 Q0989
2020/02/22 20:20 EYKA 222020Z 23014G25KT 9999 SCT031 BKN044 OVC061 06/01 Q1000 R08/290095
2020/02/22 20:20 EYPA 222020Z 28011G31KT 240V330 9999 SCT017 BKN043 04/02 Q0996 R19/1///95
2020/02/22 20:20 EYSA 222020Z 24015KT 9999 FEW015 BKN022 BKN052 05/03 Q0996 R14L/29//95 R14R/29//95 WHT TEMPO SCT025 BLU
2020/02/22 20:20 EYVI 222020Z 21016KT 9999 BKN033CB 04/02 Q1001 R19/2///95 NOSIG
2020/02/22 08:50 EEKA 220850Z 20016KT 160V240 9000 RA BKN009 OVC016 05/04 Q0995
2020/02/22 19:50 EEKE 221950Z AUTO 25018G29KT 220V300 9999NDV FEW026 BKN031 OVC038 06/02 Q0984
2020/02/22 13:50 EEPU 221350Z 19020G36KT 160V230 3600 -RA BR BKN008 OVC014 04/03 Q0991
2020/02/22 20:20 EETN 222020Z 23020G30KT 9999 -RA BKN019 OVC031 05/02 Q0977 R08/290195 TEMPO 2000 SHRASN BKN015CB
2020/02/22 19:50 EETU 221950Z AUTO 21021G35KT 9999 -RA SCT009/// OVC019/// 02/01 Q0984
   RIGA AIRPORT     EVRA               56 55N  023 58E   10   X     T          6 LV
   LIEPAJA INTL     EVLA        26406  56 31N  021 06E    4   X                8 LV
   VENTPILS         EVVA               57 21N  021 33E    6   X                8 LV
   KAUNAS           EYKA               54 54N  023 55E   77   X     T          6 LT
   PALANGA INTL     EYPA               55 55N  021 03E   10   X                6 LT
   SIAULIAI INTL    EYSA               55 54N  023 24E  135   X     T          6 LT
   VILNIUS INTL     EYVI        26730  54 38N  025 17E  197   X     T          6 LT
   KARDLA           EEKA        26116  58 59N  022 50E    4   X                8 EE
   KURESSAARE       EEKE               58 14N  022 31E    4   X                8 EE
   PARNU            EEPU               58 25N  024 28E   14   X                8 EE
   TALLINN          EETN        26038  59 24N  024 49E   40   X     T          8 EE
   TARTU            EETU               58 19N  026 41E   67   X                8 EE